Aérodrome :
LOGIN :

S'inscrire | Disclaimer

   EN    FR    IT 

 










Légende :    VFR   VFR Marginal   IFR   IFR Intensif   IFR Très Intensif
Visi : 
Plafond : 
>= 8 km
>= 3000ft
5 à 8 km
1000 à 3000 ft
1500m à 5 km
500 à 1000 ft
800 à 1500m
200 à 500 ft
< 800m
< 200 ft
Symboles :   Orages  Brouillard  Fortes neiges  Fortes précipitations  Vent > 20 kt
SIGMETs :   Divers  Orages  Givrage  Turbulence  Onde Orograph.  Cendres Volcan.






- Altitude de l'aérodrome : 74 ft
- Code IATA : NDZ


ETMN - Cuxhaven Nordholz Sea AB

DERNIER METAR :
  • 240120Z 24008KT 3000 BR OVC001 02/01 Q1024 RED

METARs EXPIRÉS :
  • 240020Z 23007KT 3000 BR BKN001 02/01 Q1025 RED
  • 232320Z 23006KT 4000 BR BKN001 02/02 Q1025 RED

TAF AMD TAF ETMN
Valide du 23 à 18h jusqu'au 24 à 03h UTC


232215Z 2318/2403 25008KT 8000 NSW BKN004
BECMG 2318/2320 22007KT 2000 BR BKN002
TEMPO 2320/2403 22005KT 0400 FG VV001 CANCEL 2220



MET'MAP, la Météo Aéronautique d'un coup d'oeil ! - Copyright ORBIFLY Décembre 2007 - Disclaimer

ORBIFLY MET'MAP TEAM :

Programmation & Développement : Alexandra Zaïnal
Sur une idée originale de : Baudouin d'Aumeries
Assistance à la programmation : Marc-Olivier Méhu
Soutien technique & logistique : Manuel Goepfert

Contact : metmap@orbifly.com




SOURCES & CREDITS :

   NOAA